Nyk Constellation — V7NP4 — position and weather

sailwx.info

Track history (hours):
 
Tides and Currents Weather Stations Pressure Air Temp Water Temp Dewpoint Dewpoint Depression Visibility Wind Speed Wind Dir Waves Ship Positions

Nyk Constellation

Last reported at 2014-Jul-21 00:20 UTC. Time now 2014-Jul-23 23:47 UTC.
Position N 35°34' E 141°16'.

Length 294 m; draft 11.5 m.

Type: Cargo ship. MMSI: 538002992.

Date/timePositionNaut miles runAvg speedWind from/ knotsBaromVisibWave heightAir tempDewpointWater temp
2014-Jul-21 00:20N 35°34' E 141°16'1717.9
2014-Jul-20 23:21N 35°24' E 140°59'1517.7
2014-Jul-20 22:29N 35°14' E 140°44'1717.8
2014-Jul-20 21:33N 35°04' E 140°28'1818.2
2014-Jul-20 20:34N 34°55' E 140°09'1818.3
2014-Jul-20 19:33N 34°47' E 139°49'1414.3
2014-Jul-20 18:33N 34°60' E 139°42'1414.0
2014-Jul-20 17:33N 35°13' E 139°46'1212.4
2014-Jul-20 16:34N 35°25' E 139°44'1010.2
2014-Jul-20 15:33N 35°35' E 139°47'1 1.1
2014-Jul-20 14:34N 35°36' E 139°46'0 0.0
2014-Jul-20 13:33N 35°36' E 139°46'0 0.0
2014-Jul-20 12:34N 35°36' E 139°46'0 0.0
2014-Jul-20 11:34N 35°36' E 139°46'0 0.0
2014-Jul-20 10:33N 35°36' E 139°46'0 0.0
2014-Jul-20 09:33N 35°36' E 139°46'0 0.0
2014-Jul-20 08:33N 35°36' E 139°46'0 0.0
2014-Jul-20 07:33N 35°36' E 139°46'0 0.0
2014-Jul-20 06:33N 35°36' E 139°46'0 0.0
2014-Jul-20 05:34N 35°36' E 139°46'0 0.0
2014-Jul-20 04:33N 35°36' E 139°46'0 0.0
2014-Jul-20 03:33N 35°36' E 139°46'0 0.4
2014-Jul-20 02:33N 35°36' E 139°47'8 8.3
2014-Jul-20 01:34N 35°28' E 139°51'1211.6
2014-Jul-20 00:34N 35°18' E 139°45'1010.4
2014-Jul-19 23:34N 35°07' E 139°45'1212.2
2014-Jul-19 22:33N 34°59' E 139°34'1515.0
2014-Jul-19 21:32N 34°50' E 139°19'4615.5
2014-Jul-19 18:33N 34°28' E 138°30'178 6.1
2014-Jul-18 13:20N 33°44' E 135°01'1012.9
2014-Jul-18 12:33N 33°53' E 134°57'1211.9
2014-Jul-18 11:33N 34°05' E 134°57'1312.8
2014-Jul-18 10:34N 34°18' E 134°59'1817.6
2014-Jul-18 09:33N 34°32' E 135°11'1010.3
2014-Jul-18 08:33N 34°41' E 135°18'1 0.5
2014-Jul-18 07:32N 34°41' E 135°17'0 0.0
2014-Jul-18 06:32N 34°41' E 135°17'0 0.0
2014-Jul-18 05:32N 34°41' E 135°17'0 0.0
2014-Jul-18 04:32N 34°41' E 135°17'0 0.0
2014-Jul-18 03:26N 34°41' E 135°17'0 0.0
2014-Jul-18 02:32N 34°41' E 135°17'0 0.0
2014-Jul-18 01:32N 34°41' E 135°17'0 0.1
2014-Jul-18 00:33N 34°41' E 135°17'1111.5
2014-Jul-17 23:33N 34°30' E 135°13'1717.2
2014-Jul-17 22:33N 34°17' E 134°59'1211.8
2014-Jul-17 21:33N 34°05' E 134°59'1212.2
2014-Jul-17 20:33N 33°53' E 134°58'  
2014-Jul-14 13:33N 30°37' E 122°58'1616.0
2014-Jul-14 12:33N 30°34' E 122°40'1515.4
2014-Jul-14 11:33N 30°32' E 122°22'1413.7
2014-Jul-14 10:34N 30°35' E 122°07'4 4.3
2014-Jul-14 09:33N 30°38' E 122°03'0 0.0
2014-Jul-14 08:32N 30°38' E 122°03'0 0.0
2014-Jul-14 07:33N 30°38' E 122°03'0 0.0
2014-Jul-14 06:33N 30°38' E 122°03'0 0.0
2014-Jul-14 05:33N 30°38' E 122°03'0 0.0
2014-Jul-14 04:33N 30°38' E 122°03'0 0.0
2014-Jul-14 03:33N 30°38' E 122°03'0 0.0
2014-Jul-14 02:33N 30°38' E 122°03'0 0.1
2014-Jul-14 01:32N 30°38' E 122°03'9 9.0
2014-Jul-14 00:33N 30°34' E 122°12'1010.4
2014-Jul-13 23:33N 30°32' E 122°24'7 5.3
2014-Jul-13 22:18N 30°29' E 122°30'0 0.0
2014-Jul-13 21:30N 30°29' E 122°30'0 0.0
2014-Jul-13 20:30N 30°29' E 122°30'0 0.0
2014-Jul-13 19:24N 30°29' E 122°30'0 0.0
2014-Jul-13 18:30N 30°29' E 122°30'0 0.1
2014-Jul-13 17:30N 30°29' E 122°30'0 0.3
2014-Jul-13 16:30N 30°29' E 122°30'0 0.1
2014-Jul-13 15:30N 30°29' E 122°30'0 0.0
2014-Jul-13 14:24N 30°29' E 122°30'0 0.0
2014-Jul-13 13:30N 30°29' E 122°30'0 0.1
2014-Jul-13 12:30N 30°29' E 122°30'0 0.3
2014-Jul-13 11:30N 30°28' E 122°30'0 0.1
2014-Jul-13 10:30N 30°29' E 122°30'0 0.0
2014-Jul-13 09:30N 30°29' E 122°30'1 0.6
2014-Jul-13 08:33N 30°28' E 122°31'7 7.2
2014-Jul-13 07:33N 30°22' E 122°27'1514.9
2014-Jul-13 06:33N 30°22' E 122°09'2 2.1
2014-Jul-13 05:33N 30°22' E 122°07'0 0.2
2014-Jul-13 04:33N 30°22' E 122°07'0 0.1
2014-Jul-13 03:33N 30°22' E 122°07'0 0.0
2014-Jul-13 02:33N 30°22' E 122°07'0 0.0
2014-Jul-13 01:29N 30°22' E 122°07'0 0.0
2014-Jul-13 00:33N 30°22' E 122°07'0 0.3
2014-Jul-12 23:33N 30°22' E 122°07'0 0.1
2014-Jul-12 22:22N 30°22' E 122°07'0 0.0
2014-Jul-12 21:06N 30°22' E 122°07'0 0.0
2014-Jul-12 20:30N 30°22' E 122°07'0 0.0
2014-Jul-12 19:25N 30°22' E 122°07'0 0.0
2014-Jul-12 18:32N 30°22' E 122°07'0 0.1
2014-Jul-12 17:17N 30°22' E 122°07'0 0.3
2014-Jul-12 16:32N 30°22' E 122°07'0 0.0
2014-Jul-12 15:33N 30°22' E 122°07'0 0.0
2014-Jul-12 14:33N 30°22' E 122°07'0 0.1
2014-Jul-12 13:33N 30°22' E 122°07'0 0.0
2014-Jul-12 12:34N 30°22' E 122°07'0 0.1
2014-Jul-12 11:33N 30°22' E 122°07'0 0.3
2014-Jul-12 10:24N 30°22' E 122°07'0 0.1
2014-Jul-12 09:33N 30°22' E 122°07'0 0.0
2014-Jul-12 08:20N 30°22' E 122°07'0 0.0
2014-Jul-12 06:33N 30°22' E 122°07'0 0.1
2014-Jul-12 05:33N 30°22' E 122°07'0 0.2
2014-Jul-12 04:33N 30°22' E 122°07'0 0.1
2014-Jul-12 03:33N 30°22' E 122°07'0 0.0
2014-Jul-12 02:33N 30°22' E 122°07'0 0.1
2014-Jul-12 01:33N 30°22' E 122°07'0 0.0
2014-Jul-12 00:34N 30°22' E 122°07'0 0.1
2014-Jul-11 23:33N 30°22' E 122°07'0 0.2
2014-Jul-11 22:33N 30°22' E 122°07'0 0.2
2014-Jul-11 21:30N 30°22' E 122°07'0 0.0
2014-Jul-11 19:29N 30°22' E 122°07'0 0.0
2014-Jul-11 18:32N 30°22' E 122°07'0 0.0
2014-Jul-11 17:18N 30°22' E 122°07'0 0.1
2014-Jul-11 16:31N 30°22' E 122°07'0 0.3
2014-Jul-11 15:33N 30°22' E 122°07'0 0.0
2014-Jul-11 14:33N 30°22' E 122°07'0 0.1
2014-Jul-11 13:32N 30°22' E 122°07'0 0.0
2014-Jul-11 12:33N 30°22' E 122°07'0 0.0
2014-Jul-11 11:33N 30°22' E 122°07'0 0.1
2014-Jul-11 10:33N 30°22' E 122°07'0 0.0
2014-Jul-11 09:33N 30°22' E 122°07'0 0.3
2014-Jul-11 08:29N 30°22' E 122°07'0 0.0
2014-Jul-11 04:16N 30°22' E 122°07'0 0.4
2014-Jul-11 03:33N 30°22' E 122°07'0 0.0
2014-Jul-11 02:33N 30°22' E 122°07'0 0.0
2014-Jul-11 01:33N 30°22' E 122°07'0 0.1
2014-Jul-11 00:33N 30°22' E 122°07'  
Track history (hours):
 
Tides and Currents Weather Stations Pressure Air Temp Water Temp Dewpoint Dewpoint Depression Visibility Wind Speed Wind Dir Waves Ship Positions

Nyk Constellation

Last reported at 2014-Jul-21 00:20 UTC. Time now 2014-Jul-23 23:47 UTC.
Position N 35°34' E 141°16'.

Length 294 m; draft 11.5 m.

Type: Cargo ship. MMSI: 538002992.

Date/timePositionNaut miles runAvg speedWind from/ knotsBaromVisibWave heightAir tempDewpointWater temp
2014-Jul-21 00:20N 35°34' E 141°16'1717.9
2014-Jul-20 23:21N 35°24' E 140°59'1517.7
2014-Jul-20 22:29N 35°14' E 140°44'1717.8
2014-Jul-20 21:33N 35°04' E 140°28'1818.2
2014-Jul-20 20:34N 34°55' E 140°09'1818.3
2014-Jul-20 19:33N 34°47' E 139°49'1414.3
2014-Jul-20 18:33N 34°60' E 139°42'1414.0
2014-Jul-20 17:33N 35°13' E 139°46'1212.4
2014-Jul-20 16:34N 35°25' E 139°44'1010.2
2014-Jul-20 15:33N 35°35' E 139°47'1 1.1
2014-Jul-20 14:34N 35°36' E 139°46'0 0.0
2014-Jul-20 13:33N 35°36' E 139°46'0 0.0
2014-Jul-20 12:34N 35°36' E 139°46'0 0.0
2014-Jul-20 11:34N 35°36' E 139°46'0 0.0
2014-Jul-20 10:33N 35°36' E 139°46'0 0.0
2014-Jul-20 09:33N 35°36' E 139°46'0 0.0
2014-Jul-20 08:33N 35°36' E 139°46'0 0.0
2014-Jul-20 07:33N 35°36' E 139°46'0 0.0
2014-Jul-20 06:33N 35°36' E 139°46'0 0.0
2014-Jul-20 05:34N 35°36' E 139°46'0 0.0
2014-Jul-20 04:33N 35°36' E 139°46'0 0.0
2014-Jul-20 03:33N 35°36' E 139°46'0 0.4
2014-Jul-20 02:33N 35°36' E 139°47'8 8.3
2014-Jul-20 01:34N 35°28' E 139°51'1211.6
2014-Jul-20 00:34N 35°18' E 139°45'1010.4
2014-Jul-19 23:34N 35°07' E 139°45'1212.2
2014-Jul-19 22:33N 34°59' E 139°34'1515.0
2014-Jul-19 21:32N 34°50' E 139°19'4615.5
2014-Jul-19 18:33N 34°28' E 138°30'178 6.1
2014-Jul-18 13:20N 33°44' E 135°01'1012.9
2014-Jul-18 12:33N 33°53' E 134°57'1211.9
2014-Jul-18 11:33N 34°05' E 134°57'1312.8
2014-Jul-18 10:34N 34°18' E 134°59'1817.6
2014-Jul-18 09:33N 34°32' E 135°11'1010.3
2014-Jul-18 08:33N 34°41' E 135°18'1 0.5
2014-Jul-18 07:32N 34°41' E 135°17'0 0.0
2014-Jul-18 06:32N 34°41' E 135°17'0 0.0
2014-Jul-18 05:32N 34°41' E 135°17'0 0.0
2014-Jul-18 04:32N 34°41' E 135°17'0 0.0
2014-Jul-18 03:26N 34°41' E 135°17'0 0.0
2014-Jul-18 02:32N 34°41' E 135°17'0 0.0
2014-Jul-18 01:32N 34°41' E 135°17'0 0.1
2014-Jul-18 00:33N 34°41' E 135°17'1111.5
2014-Jul-17 23:33N 34°30' E 135°13'1717.2
2014-Jul-17 22:33N 34°17' E 134°59'1211.8
2014-Jul-17 21:33N 34°05' E 134°59'1212.2
2014-Jul-17 20:33N 33°53' E 134°58'  
2014-Jul-14 13:33N 30°37' E 122°58'1616.0
2014-Jul-14 12:33N 30°34' E 122°40'1515.4
2014-Jul-14 11:33N 30°32' E 122°22'1413.7
2014-Jul-14 10:34N 30°35' E 122°07'4 4.3
2014-Jul-14 09:33N 30°38' E 122°03'0 0.0
2014-Jul-14 08:32N 30°38' E 122°03'0 0.0
2014-Jul-14 07:33N 30°38' E 122°03'0 0.0
2014-Jul-14 06:33N 30°38' E 122°03'0 0.0
2014-Jul-14 05:33N 30°38' E 122°03'0 0.0
2014-Jul-14 04:33N 30°38' E 122°03'0 0.0
2014-Jul-14 03:33N 30°38' E 122°03'0 0.0
2014-Jul-14 02:33N 30°38' E 122°03'0 0.1
2014-Jul-14 01:32N 30°38' E 122°03'9 9.0
2014-Jul-14 00:33N 30°34' E 122°12'1010.4
2014-Jul-13 23:33N 30°32' E 122°24'7 5.3
2014-Jul-13 22:18N 30°29' E 122°30'0 0.0
2014-Jul-13 21:30N 30°29' E 122°30'0 0.0
2014-Jul-13 20:30N 30°29' E 122°30'0 0.0
2014-Jul-13 19:24N 30°29' E 122°30'0 0.0
2014-Jul-13 18:30N 30°29' E 122°30'0 0.1
2014-Jul-13 17:30N 30°29' E 122°30'0 0.3
2014-Jul-13 16:30N 30°29' E 122°30'0 0.1
2014-Jul-13 15:30N 30°29' E 122°30'0 0.0
2014-Jul-13 14:24N 30°29' E 122°30'0 0.0
2014-Jul-13 13:30N 30°29' E 122°30'0 0.1
2014-Jul-13 12:30N 30°29' E 122°30'0 0.3
2014-Jul-13 11:30N 30°28' E 122°30'0 0.1
2014-Jul-13 10:30N 30°29' E 122°30'0 0.0
2014-Jul-13 09:30N 30°29' E 122°30'1 0.6
2014-Jul-13 08:33N 30°28' E 122°31'7 7.2
2014-Jul-13 07:33N 30°22' E 122°27'1514.9
2014-Jul-13 06:33N 30°22' E 122°09'2 2.1
2014-Jul-13 05:33N 30°22' E 122°07'0 0.2
2014-Jul-13 04:33N 30°22' E 122°07'0 0.1
2014-Jul-13 03:33N 30°22' E 122°07'0 0.0
2014-Jul-13 02:33N 30°22' E 122°07'0 0.0
2014-Jul-13 01:29N 30°22' E 122°07'0 0.0
2014-Jul-13 00:33N 30°22' E 122°07'0 0.3
2014-Jul-12 23:33N 30°22' E 122°07'0 0.1
2014-Jul-12 22:22N 30°22' E 122°07'0 0.0
2014-Jul-12 21:06N 30°22' E 122°07'0 0.0
2014-Jul-12 20:30N 30°22' E 122°07'0 0.0
2014-Jul-12 19:25N 30°22' E 122°07'0 0.0
2014-Jul-12 18:32N 30°22' E 122°07'0 0.1
2014-Jul-12 17:17N 30°22' E 122°07'0 0.3
2014-Jul-12 16:32N 30°22' E 122°07'0 0.0
2014-Jul-12 15:33N 30°22' E 122°07'0 0.0
2014-Jul-12 14:33N 30°22' E 122°07'0 0.1
2014-Jul-12 13:33N 30°22' E 122°07'0 0.0
2014-Jul-12 12:34N 30°22' E 122°07'0 0.1
2014-Jul-12 11:33N 30°22' E 122°07'0 0.3
2014-Jul-12 10:24N 30°22' E 122°07'0 0.1
2014-Jul-12 09:33N 30°22' E 122°07'0 0.0
2014-Jul-12 08:20N 30°22' E 122°07'0 0.0
2014-Jul-12 06:33N 30°22' E 122°07'0 0.1
2014-Jul-12 05:33N 30°22' E 122°07'0 0.2
2014-Jul-12 04:33N 30°22' E 122°07'0 0.1
2014-Jul-12 03:33N 30°22' E 122°07'0 0.0
2014-Jul-12 02:33N 30°22' E 122°07'0 0.1
2014-Jul-12 01:33N 30°22' E 122°07'0 0.0
2014-Jul-12 00:34N 30°22' E 122°07'0 0.1
2014-Jul-11 23:33N 30°22' E 122°07'0 0.2
2014-Jul-11 22:33N 30°22' E 122°07'0 0.2
2014-Jul-11 21:30N 30°22' E 122°07'0 0.0
2014-Jul-11 19:29N 30°22' E 122°07'0 0.0
2014-Jul-11 18:32N 30°22' E 122°07'0 0.0
2014-Jul-11 17:18N 30°22' E 122°07'0 0.1
2014-Jul-11 16:31N 30°22' E 122°07'0 0.3
2014-Jul-11 15:33N 30°22' E 122°07'0 0.0
2014-Jul-11 14:33N 30°22' E 122°07'0 0.1
2014-Jul-11 13:32N 30°22' E 122°07'0 0.0
2014-Jul-11 12:33N 30°22' E 122°07'0 0.0
2014-Jul-11 11:33N 30°22' E 122°07'0 0.1
2014-Jul-11 10:33N 30°22' E 122°07'0 0.0
2014-Jul-11 09:33N 30°22' E 122°07'0 0.3
2014-Jul-11 08:29N 30°22' E 122°07'0 0.0
2014-Jul-11 04:16N 30°22' E 122°07'0 0.4
2014-Jul-11 03:33N 30°22' E 122°07'0 0.0
2014-Jul-11 02:33N 30°22' E 122°07'0 0.0
2014-Jul-11 01:33N 30°22' E 122°07'0 0.1
2014-Jul-11 00:33N 30°22' E 122°07'  

Dump ship's entire track history